Sellers, SC (29592)

2:26 AM EDT on August 01, 2014 (GMT -0400)
Marion County (KMAO) Elev 92 ft | 34.18 °N, 79.33 °W | Change Station

Current weather conditions updated 11 minutes ago

Rain
Rain
72 °F
Feels Like 72 °F
N
6
Wind Variable Wind from East

Today is forecast to be nearly the same temperature as yesterday. A few thunderstorms possible.

Today
High -- | Low -- °F
--% Chance of Precip.
Yesterday
High -- | Low -- °F
Precip. -- in
6:28 AM 8:19 PM
Waxing Crescent, 24% visible
Pressure 30.06 in
Visibility 5.0 miles
Clouds Scattered Clouds 2500 ft
Scattered Clouds 3200 ft
Mostly Cloudy 9500 ft
Dew Point 72 °F
Humidity 100%
Rainfall 0.06 in
Snow Depth Not available.
UV 0 out of 12
Pollen 4.10 out of 12
PM2.5 Good
Flu Activity Not available.
METAR KMAO 010615Z AUTO 08005KT 5SM RA SCT025 SCT032 BKN095 22/22 A3006 RMK AO2 LTG DSNT SE P0001

More Conditions Fewer Conditions

Pressure 30.06 in
Visibility 5.0 miles
Clouds Scattered Clouds 2500 ft
Scattered Clouds 3200 ft
Mostly Cloudy 9500 ft
Dew Point 72 °F
Humidity 100%
Rainfall 0.06 in
Snow Depth Not available.
UV 0 out of 12
Pollen 4.10 out of 12
PM2.5 Good
Flu Activity Not available.
METAR KMAO 010615Z AUTO 08005KT 5SM RA SCT025 SCT032 BKN095 22/22 A3006 RMK AO2 LTG DSNT SE P0001

More Conditions Fewer Conditions

10-Day Weather Forecast

Almanac

Astronomy

Aug. 01, 2014 Rise Set
Actual Time 6:28 AM EDT 8:19 PM EDT
Civil Twilight 6:01 AM EDT 8:46 PM EDT
Nautical Twilight 5:27 AM EDT 9:19 PM EDT
Astronomical Twilight 4:52 AM EDT 9:54 PM EDT
Moon 11:34 AM EDT 11:20 PM EDT
Length of Visible Light 14h 45m
Length of Day
13h 50m
Tomorrow will be 1m 37s shorter.
Waxing Crescent, 24% of the Moon is Illuminated
Today
Waxing Crescent
Aug 3
First Quarter
Aug 10
Full
Aug 17
Last Quarter
Aug 25
New

Today's Extremes

State Highs State Lows

Community

WunderPhotos

Upload Photos

1,739,522 photos uploaded!

Nearby

Air Quality

  Air Quality AQ Index Pollutant
Yesterday Good
PM2.5
Yesterday Good
OZONE
Current Good
PM2.5
Friday Good
OZONE

Snow Depth

Station Depth Elevation
No new snow has been reported.

Earthquake Activity

City Distance Mag. Time & Date
No recent earthquake activity has been reported nearby.
Minimum magnitude displayed is 2.5.

Coastal Water Temperatures

Place Temperature
No Stations Reporting

Nearby Weather Stations

Station Location Temp. Heat Index Dew Point Humidity Wind Precip. Elev Updated Type
Mechanicsville, Darlington, SC 71.9 °F - 71 °F 97% ENE  at  2.0 mph 0.00 in / hr 144 ft 2:26 AM EDT Rapid Fire
The Abbeys, Florence, SC 72.5 °F - 72 °F 99% NNW  at  0.0 mph - / hr 138 ft 2:12 AM EDT Normal
RL Fogle, Nichols, SC 73.1 °F - 71 °F 94% ENE  at  0.0 mph 0.00 in / hr 75 ft 2:26 AM EDT Rapid Fire
Savannah Grove, Effingham, SC 72.5 °F - 71 °F 96% ESE  at  1.7 mph - / hr 138 ft 2:14 AM EDT Normal
Cambridge Apartments, Florence, SC 73.9 °F 72 °F 70 °F 89% North  at  - - / hr 141 ft 2:20 AM EDT Normal

Show More Stations Show Fewer Stations